sensor_id;sensor_type;location;lat;lon;timestamp;temperature;humidity
19000;DHT22;9633;50.980;13.850;2022-12-16T00:01:33;-4.10;99.90
19000;DHT22;9633;50.980;13.850;2022-12-16T00:03:06;-4.10;99.90
19000;DHT22;9633;50.980;13.850;2022-12-16T00:04:40;-4.10;99.90
19000;DHT22;9633;50.980;13.850;2022-12-16T00:06:15;-4.20;99.90
19000;DHT22;9633;50.980;13.850;2022-12-16T00:07:48;-4.30;99.90
19000;DHT22;9633;50.980;13.850;2022-12-16T00:09:21;-4.40;99.90
19000;DHT22;9633;50.980;13.850;2022-12-16T00:10:56;-4.40;99.90
19000;DHT22;9633;50.980;13.850;2022-12-16T00:12:28;-4.40;99.90
19000;DHT22;9633;50.980;13.850;2022-12-16T00:14:02;-4.40;99.90
19000;DHT22;9633;50.980;13.850;2022-12-16T00:15:36;-4.30;99.90
19000;DHT22;9633;50.980;13.850;2022-12-16T00:17:09;-4.30;99.90
19000;DHT22;9633;50.980;13.850;2022-12-16T00:18:43;-4.30;99.90
19000;DHT22;9633;50.980;13.850;2022-12-16T00:20:16;-4.20;99.90
19000;DHT22;9633;50.980;13.850;2022-12-16T00:21:51;-4.30;99.90
19000;DHT22;9633;50.980;13.850;2022-12-16T00:23:26;-4.30;99.90
19000;DHT22;9633;50.980;13.850;2022-12-16T00:25:00;-4.40;99.90
19000;DHT22;9633;50.980;13.850;2022-12-16T00:26:33;-4.40;99.90
19000;DHT22;9633;50.980;13.850;2022-12-16T00:28:07;-4.40;99.90
19000;DHT22;9633;50.980;13.850;2022-12-16T00:29:40;-4.40;99.90
19000;DHT22;9633;50.980;13.850;2022-12-16T00:31:13;-4.40;99.90
19000;DHT22;9633;50.980;13.850;2022-12-16T00:32:46;-4.50;99.90
19000;DHT22;9633;50.980;13.850;2022-12-16T00:34:21;-4.50;99.90
19000;DHT22;9633;50.980;13.850;2022-12-16T00:35:54;-4.50;99.90
19000;DHT22;9633;50.980;13.850;2022-12-16T00:37:29;-4.50;99.90
19000;DHT22;9633;50.980;13.850;2022-12-16T00:39:02;-4.50;99.90
19000;DHT22;9633;50.980;13.850;2022-12-16T00:40:35;-4.50;99.90
19000;DHT22;9633;50.980;13.850;2022-12-16T00:42:08;-4.60;99.90
19000;DHT22;9633;50.980;13.850;2022-12-16T00:43:41;-4.60;99.90
19000;DHT22;9633;50.980;13.850;2022-12-16T00:45:15;-4.60;99.90
19000;DHT22;9633;50.980;13.850;2022-12-16T00:46:48;-4.60;99.90
19000;DHT22;9633;50.980;13.850;2022-12-16T00:48:21;-4.50;99.90
19000;DHT22;9633;50.980;13.850;2022-12-16T00:49:54;-4.50;99.90
19000;DHT22;9633;50.980;13.850;2022-12-16T00:51:27;-4.60;99.90
19000;DHT22;9633;50.980;13.850;2022-12-16T00:53:02;-4.60;99.90
19000;DHT22;9633;50.980;13.850;2022-12-16T00:54:35;-4.60;99.90
19000;DHT22;9633;50.980;13.850;2022-12-16T00:56:10;-4.60;99.90
19000;DHT22;9633;50.980;13.850;2022-12-16T00:57:45;-4.50;99.90
19000;DHT22;9633;50.980;13.850;2022-12-16T00:59:19;-4.50;99.90
19000;DHT22;9633;50.980;13.850;2022-12-16T01:00:52;-4.50;99.90
19000;DHT22;9633;50.980;13.850;2022-12-16T01:02:25;-4.40;99.90
19000;DHT22;9633;50.980;13.850;2022-12-16T01:03:59;-4.30;99.90
19000;DHT22;9633;50.980;13.850;2022-12-16T01:05:32;-4.30;99.90
19000;DHT22;9633;50.980;13.850;2022-12-16T01:07:05;-4.30;99.90
19000;DHT22;9633;50.980;13.850;2022-12-16T01:08:40;-4.30;99.90
19000;DHT22;9633;50.980;13.850;2022-12-16T01:10:19;-4.20;99.90
19000;DHT22;9633;50.980;13.850;2022-12-16T01:11:52;-4.20;99.90
19000;DHT22;9633;50.980;13.850;2022-12-16T01:13:25;-4.20;99.90
19000;DHT22;9633;50.980;13.850;2022-12-16T01:14:59;-4.30;99.90
19000;DHT22;9633;50.980;13.850;2022-12-16T01:16:32;-4.30;99.90
19000;DHT22;9633;50.980;13.850;2022-12-16T01:18:06;-4.30;99.90
19000;DHT22;9633;50.980;13.850;2022-12-16T01:19:39;-4.30;99.90
19000;DHT22;9633;50.980;13.850;2022-12-16T01:21:14;-4.20;99.90
19000;DHT22;9633;50.980;13.850;2022-12-16T01:22:47;-4.20;99.90
19000;DHT22;9633;50.980;13.850;2022-12-16T01:24:21;-4.20;99.90
19000;DHT22;9633;50.980;13.850;2022-12-16T01:25:57;-4.20;99.90
19000;DHT22;9633;50.980;13.850;2022-12-16T01:27:31;-4.20;99.90
19000;DHT22;9633;50.980;13.850;2022-12-16T01:29:04;-4.30;99.90
19000;DHT22;9633;50.980;13.850;2022-12-16T01:30:37;-4.30;99.90
19000;DHT22;9633;50.980;13.850;2022-12-16T01:32:12;-4.40;99.90
19000;DHT22;9633;50.980;13.850;2022-12-16T01:33:45;-4.40;99.90
19000;DHT22;9633;50.980;13.850;2022-12-16T01:35:18;-4.40;99.90
19000;DHT22;9633;50.980;13.850;2022-12-16T01:37:11;-4.40;99.90
19000;DHT22;9633;50.980;13.850;2022-12-16T01:38:45;-4.30;99.90
19000;DHT22;9633;50.980;13.850;2022-12-16T01:40:22;-4.20;99.90
19000;DHT22;9633;50.980;13.850;2022-12-16T01:41:56;-4.20;99.90
19000;DHT22;9633;50.980;13.850;2022-12-16T01:43:31;-4.20;99.90
19000;DHT22;9633;50.980;13.850;2022-12-16T01:45:31;-4.00;99.90
19000;DHT22;9633;50.980;13.850;2022-12-16T01:47:05;-4.00;99.90
19000;DHT22;9633;50.980;13.850;2022-12-16T01:48:44;-4.00;99.90
19000;DHT22;9633;50.980;13.850;2022-12-16T01:50:18;-4.00;99.90
19000;DHT22;9633;50.980;13.850;2022-12-16T01:51:52;-4.00;99.90
19000;DHT22;9633;50.980;13.850;2022-12-16T01:53:26;-4.00;99.90
19000;DHT22;9633;50.980;13.850;2022-12-16T01:55:02;-4.00;99.90
19000;DHT22;9633;50.980;13.850;2022-12-16T01:56:42;-4.00;99.90
19000;DHT22;9633;50.980;13.850;2022-12-16T01:58:19;-4.00;99.90
19000;DHT22;9633;50.980;13.850;2022-12-16T01:59:53;-4.10;99.90
19000;DHT22;9633;50.980;13.850;2022-12-16T02:01:27;-4.10;99.90
19000;DHT22;9633;50.980;13.850;2022-12-16T02:03:01;-4.20;99.90
19000;DHT22;9633;50.980;13.850;2022-12-16T02:04:33;-4.30;99.90
19000;DHT22;9633;50.980;13.850;2022-12-16T02:06:26;-4.30;99.90
19000;DHT22;9633;50.980;13.850;2022-12-16T02:08:01;-4.30;99.90
19000;DHT22;9633;50.980;13.850;2022-12-16T02:09:38;-4.30;99.90
19000;DHT22;9633;50.980;13.850;2022-12-16T02:11:28;-4.30;99.90
19000;DHT22;9633;50.980;13.850;2022-12-16T02:13:12;-4.30;99.90
19000;DHT22;9633;50.980;13.850;2022-12-16T02:15:11;-4.20;99.90
19000;DHT22;9633;50.980;13.850;2022-12-16T02:16:53;-4.10;99.90
19000;DHT22;9633;50.980;13.850;2022-12-16T02:18:33;-4.10;99.90
19000;DHT22;9633;50.980;13.850;2022-12-16T02:22:26;-4.10;99.90
19000;DHT22;9633;50.980;13.850;2022-12-16T02:24:29;-4.00;99.90
19000;DHT22;9633;50.980;13.850;2022-12-16T02:26:34;-4.00;99.90
19000;DHT22;9633;50.980;13.850;2022-12-16T02:28:30;-4.00;99.90
19000;DHT22;9633;50.980;13.850;2022-12-16T02:32:09;-3.90;99.90
19000;DHT22;9633;50.980;13.850;2022-12-16T02:33:56;-3.90;99.90
19000;DHT22;9633;50.980;13.850;2022-12-16T02:35:38;-3.90;99.90
19000;DHT22;9633;50.980;13.850;2022-12-16T02:37:21;-3.80;99.90
19000;DHT22;9633;50.980;13.850;2022-12-16T02:38:59;-3.70;99.90
19000;DHT22;9633;50.980;13.850;2022-12-16T02:40:38;-3.80;99.90
19000;DHT22;9633;50.980;13.850;2022-12-16T02:42:18;-3.80;99.90
19000;DHT22;9633;50.980;13.850;2022-12-16T02:43:56;-3.80;99.90
19000;DHT22;9633;50.980;13.850;2022-12-16T02:45:31;-3.90;99.90
19000;DHT22;9633;50.980;13.850;2022-12-16T02:47:05;-3.90;99.90
19000;DHT22;9633;50.980;13.850;2022-12-16T02:48:39;-3.90;99.90
19000;DHT22;9633;50.980;13.850;2022-12-16T02:50:17;-3.90;99.90
19000;DHT22;9633;50.980;13.850;2022-12-16T02:51:53;-3.90;99.90
19000;DHT22;9633;50.980;13.850;2022-12-16T02:53:27;-4.00;99.90
19000;DHT22;9633;50.980;13.850;2022-12-16T02:55:04;-4.00;99.90
19000;DHT22;9633;50.980;13.850;2022-12-16T02:56:48;-4.20;99.90
19000;DHT22;9633;50.980;13.850;2022-12-16T02:58:28;-4.00;99.90
19000;DHT22;9633;50.980;13.850;2022-12-16T03:00:06;-4.10;99.90
19000;DHT22;9633;50.980;13.850;2022-12-16T03:01:45;-4.10;99.90
19000;DHT22;9633;50.980;13.850;2022-12-16T03:03:25;-4.10;99.90
19000;DHT22;9633;50.980;13.850;2022-12-16T03:05:05;-4.10;99.90
19000;DHT22;9633;50.980;13.850;2022-12-16T03:06:40;-4.10;99.90
19000;DHT22;9633;50.980;13.850;2022-12-16T03:08:21;-4.10;99.90
19000;DHT22;9633;50.980;13.850;2022-12-16T03:09:55;-4.10;99.90
19000;DHT22;9633;50.980;13.850;2022-12-16T03:11:30;-4.10;99.90
19000;DHT22;9633;50.980;13.850;2022-12-16T03:13:04;-4.10;99.90
19000;DHT22;9633;50.980;13.850;2022-12-16T03:14:42;-4.00;99.90
19000;DHT22;9633;50.980;13.850;2022-12-16T03:16:20;-4.00;99.90
19000;DHT22;9633;50.980;13.850;2022-12-16T03:17:53;-4.00;99.90
19000;DHT22;9633;50.980;13.850;2022-12-16T03:19:29;-4.00;99.90
19000;DHT22;9633;50.980;13.850;2022-12-16T03:21:05;-4.00;99.90
19000;DHT22;9633;50.980;13.850;2022-12-16T03:22:40;-4.00;99.90
19000;DHT22;9633;50.980;13.850;2022-12-16T03:24:14;-3.90;99.90
19000;DHT22;9633;50.980;13.850;2022-12-16T03:25:48;-3.90;99.90
19000;DHT22;9633;50.980;13.850;2022-12-16T03:27:28;-3.90;99.90
19000;DHT22;9633;50.980;13.850;2022-12-16T03:29:06;-3.90;99.90
19000;DHT22;9633;50.980;13.850;2022-12-16T03:30:44;-3.80;99.90
19000;DHT22;9633;50.980;13.850;2022-12-16T03:32:23;-3.80;99.90
19000;DHT22;9633;50.980;13.850;2022-12-16T03:34:04;-3.80;99.90
19000;DHT22;9633;50.980;13.850;2022-12-16T03:35:43;-3.70;99.90
19000;DHT22;9633;50.980;13.850;2022-12-16T03:37:20;-3.70;99.90
19000;DHT22;9633;50.980;13.850;2022-12-16T03:38:56;-3.70;99.90
19000;DHT22;9633;50.980;13.850;2022-12-16T03:40:31;-3.70;99.90
19000;DHT22;9633;50.980;13.850;2022-12-16T03:42:04;-3.70;99.90
19000;DHT22;9633;50.980;13.850;2022-12-16T03:43:38;-3.70;99.90
19000;DHT22;9633;50.980;13.850;2022-12-16T03:45:15;-3.60;99.90
19000;DHT22;9633;50.980;13.850;2022-12-16T03:46:49;-3.60;99.90
19000;DHT22;9633;50.980;13.850;2022-12-16T03:48:24;-3.60;99.90
19000;DHT22;9633;50.980;13.850;2022-12-16T03:49:57;-3.60;99.90
19000;DHT22;9633;50.980;13.850;2022-12-16T03:51:32;-3.50;99.90
19000;DHT22;9633;50.980;13.850;2022-12-16T03:53:05;-3.50;99.90
19000;DHT22;9633;50.980;13.850;2022-12-16T03:54:39;-3.50;99.90
19000;DHT22;9633;50.980;13.850;2022-12-16T03:56:12;-3.50;99.90
19000;DHT22;9633;50.980;13.850;2022-12-16T03:57:45;-3.50;99.90
19000;DHT22;9633;50.980;13.850;2022-12-16T03:59:19;-3.50;99.90
19000;DHT22;9633;50.980;13.850;2022-12-16T04:00:52;-3.40;99.90
19000;DHT22;9633;50.980;13.850;2022-12-16T04:02:26;-3.40;99.90
19000;DHT22;9633;50.980;13.850;2022-12-16T04:03:59;-3.40;99.90
19000;DHT22;9633;50.980;13.850;2022-12-16T04:05:32;-3.40;99.90
19000;DHT22;9633;50.980;13.850;2022-12-16T04:07:07;-3.40;99.90
19000;DHT22;9633;50.980;13.850;2022-12-16T04:08:51;-3.40;99.90
19000;DHT22;9633;50.980;13.850;2022-12-16T04:10:24;-3.40;99.90
19000;DHT22;9633;50.980;13.850;2022-12-16T04:12:11;-3.30;99.90
19000;DHT22;9633;50.980;13.850;2022-12-16T04:14:01;-3.40;99.90
19000;DHT22;9633;50.980;13.850;2022-12-16T04:15:51;-3.40;99.90
19000;DHT22;9633;50.980;13.850;2022-12-16T04:17:43;-3.40;99.90
19000;DHT22;9633;50.980;13.850;2022-12-16T04:19:35;-3.30;99.90
19000;DHT22;9633;50.980;13.850;2022-12-16T04:21:26;-3.30;99.90
19000;DHT22;9633;50.980;13.850;2022-12-16T04:23:19;-3.30;99.90
19000;DHT22;9633;50.980;13.850;2022-12-16T04:25:13;-3.30;99.90
19000;DHT22;9633;50.980;13.850;2022-12-16T04:26:47;-3.20;99.90
19000;DHT22;9633;50.980;13.850;2022-12-16T04:28:46;-3.20;99.90
19000;DHT22;9633;50.980;13.850;2022-12-16T04:30:20;-3.20;99.90
19000;DHT22;9633;50.980;13.850;2022-12-16T04:31:52;-3.20;99.90
19000;DHT22;9633;50.980;13.850;2022-12-16T04:33:25;-3.20;99.90
19000;DHT22;9633;50.980;13.850;2022-12-16T04:35:31;-3.20;99.90
19000;DHT22;9633;50.980;13.850;2022-12-16T04:37:21;-3.20;99.90
19000;DHT22;9633;50.980;13.850;2022-12-16T04:39:13;-3.20;99.90
19000;DHT22;9633;50.980;13.850;2022-12-16T04:41:04;-3.20;99.90
19000;DHT22;9633;50.980;13.850;2022-12-16T04:42:55;-3.20;99.90
19000;DHT22;9633;50.980;13.850;2022-12-16T04:44:45;-3.20;99.90
19000;DHT22;9633;50.980;13.850;2022-12-16T04:46:47;-3.20;99.90
19000;DHT22;9633;50.980;13.850;2022-12-16T04:48:52;-3.20;99.90
19000;DHT22;9633;50.980;13.850;2022-12-16T04:50:44;-3.20;99.90
19000;DHT22;9633;50.980;13.850;2022-12-16T04:52:35;-3.20;99.90
19000;DHT22;9633;50.980;13.850;2022-12-16T04:54:26;-3.10;99.90
19000;DHT22;9633;50.980;13.850;2022-12-16T04:56:17;-3.10;99.90
19000;DHT22;9633;50.980;13.850;2022-12-16T04:58:07;-3.10;99.90
19000;DHT22;9633;50.980;13.850;2022-12-16T04:59:58;-3.10;99.90
19000;DHT22;9633;50.980;13.850;2022-12-16T05:01:49;-3.00;99.90
19000;DHT22;9633;50.980;13.850;2022-12-16T05:03:40;-3.00;99.90
19000;DHT22;9633;50.980;13.850;2022-12-16T05:05:39;-3.10;99.90
19000;DHT22;9633;50.980;13.850;2022-12-16T05:07:29;-3.00;99.90
19000;DHT22;9633;50.980;13.850;2022-12-16T05:09:20;-3.00;99.90
19000;DHT22;9633;50.980;13.850;2022-12-16T05:11:12;-3.00;99.90
19000;DHT22;9633;50.980;13.850;2022-12-16T05:13:03;-3.00;99.90
19000;DHT22;9633;50.980;13.850;2022-12-16T05:14:53;-3.00;99.90
19000;DHT22;9633;50.980;13.850;2022-12-16T05:16:44;-2.90;99.90
19000;DHT22;9633;50.980;13.850;2022-12-16T05:18:34;-3.00;99.90
19000;DHT22;9633;50.980;13.850;2022-12-16T05:20:25;-3.00;99.90
19000;DHT22;9633;50.980;13.850;2022-12-16T05:22:16;-3.00;99.90
19000;DHT22;9633;50.980;13.850;2022-12-16T05:24:06;-3.00;99.90
19000;DHT22;9633;50.980;13.850;2022-12-16T05:25:57;-3.00;99.90
19000;DHT22;9633;50.980;13.850;2022-12-16T05:27:51;-3.00;99.90
19000;DHT22;9633;50.980;13.850;2022-12-16T05:29:42;-3.00;99.90
19000;DHT22;9633;50.980;13.850;2022-12-16T05:31:32;-3.00;99.90
19000;DHT22;9633;50.980;13.850;2022-12-16T05:33:25;-3.00;99.90
19000;DHT22;9633;50.980;13.850;2022-12-16T05:35:16;-3.00;99.90
19000;DHT22;9633;50.980;13.850;2022-12-16T05:37:06;-3.00;99.90
19000;DHT22;9633;50.980;13.850;2022-12-16T05:38:57;-2.90;99.90
19000;DHT22;9633;50.980;13.850;2022-12-16T05:40:47;-2.90;99.90
19000;DHT22;9633;50.980;13.850;2022-12-16T05:42:37;-3.00;99.90
19000;DHT22;9633;50.980;13.850;2022-12-16T05:44:30;-3.00;99.90
19000;DHT22;9633;50.980;13.850;2022-12-16T05:46:31;-3.00;99.90
19000;DHT22;9633;50.980;13.850;2022-12-16T05:48:22;-2.90;99.90
19000;DHT22;9633;50.980;13.850;2022-12-16T05:50:18;-3.00;99.90
19000;DHT22;9633;50.980;13.850;2022-12-16T05:52:12;-3.00;99.90
19000;DHT22;9633;50.980;13.850;2022-12-16T05:54:02;-3.00;99.90
19000;DHT22;9633;50.980;13.850;2022-12-16T05:55:53;-3.00;99.90
19000;DHT22;9633;50.980;13.850;2022-12-16T05:57:44;-2.90;99.90
19000;DHT22;9633;50.980;13.850;2022-12-16T05:59:39;-2.90;99.90
19000;DHT22;9633;50.980;13.850;2022-12-16T06:01:29;-2.90;99.90
19000;DHT22;9633;50.980;13.850;2022-12-16T06:03:19;-2.90;99.90
19000;DHT22;9633;50.980;13.850;2022-12-16T06:05:10;-2.90;99.90
19000;DHT22;9633;50.980;13.850;2022-12-16T06:07:01;-2.90;99.90
19000;DHT22;9633;50.980;13.850;2022-12-16T06:08:52;-3.00;99.90
19000;DHT22;9633;50.980;13.850;2022-12-16T06:10:42;-3.00;99.90
19000;DHT22;9633;50.980;13.850;2022-12-16T06:12:33;-3.00;99.90
19000;DHT22;9633;50.980;13.850;2022-12-16T06:14:23;-2.90;99.90
19000;DHT22;9633;50.980;13.850;2022-12-16T06:16:15;-3.00;99.90
19000;DHT22;9633;50.980;13.850;2022-12-16T06:18:06;-3.00;99.90
19000;DHT22;9633;50.980;13.850;2022-12-16T06:19:56;-2.90;99.90
19000;DHT22;9633;50.980;13.850;2022-12-16T06:21:47;-3.00;99.90
19000;DHT22;9633;50.980;13.850;2022-12-16T06:23:38;-2.90;99.90
19000;DHT22;9633;50.980;13.850;2022-12-16T06:25:28;-2.90;99.90
19000;DHT22;9633;50.980;13.850;2022-12-16T06:27:18;-2.90;99.90
19000;DHT22;9633;50.980;13.850;2022-12-16T06:29:09;-2.90;99.90
19000;DHT22;9633;50.980;13.850;2022-12-16T06:30:59;-2.90;99.90
19000;DHT22;9633;50.980;13.850;2022-12-16T06:32:51;-2.90;99.90
19000;DHT22;9633;50.980;13.850;2022-12-16T06:34:42;-2.90;99.90
19000;DHT22;9633;50.980;13.850;2022-12-16T06:36:32;-2.90;99.90
19000;DHT22;9633;50.980;13.850;2022-12-16T06:38:23;-2.90;99.90
19000;DHT22;9633;50.980;13.850;2022-12-16T06:40:14;-2.90;99.90
19000;DHT22;9633;50.980;13.850;2022-12-16T06:42:04;-3.00;99.90
19000;DHT22;9633;50.980;13.850;2022-12-16T06:43:55;-3.00;99.90
19000;DHT22;9633;50.980;13.850;2022-12-16T06:45:46;-3.00;99.90
19000;DHT22;9633;50.980;13.850;2022-12-16T06:47:37;-3.00;99.90
19000;DHT22;9633;50.980;13.850;2022-12-16T06:49:29;-3.00;99.90
19000;DHT22;9633;50.980;13.850;2022-12-16T06:51:20;-3.00;99.90
19000;DHT22;9633;50.980;13.850;2022-12-16T06:53:10;-3.00;99.90
19000;DHT22;9633;50.980;13.850;2022-12-16T06:55:00;-3.00;99.90
19000;DHT22;9633;50.980;13.850;2022-12-16T06:56:51;-3.00;99.90
19000;DHT22;9633;50.980;13.850;2022-12-16T06:58:42;-2.90;99.90
19000;DHT22;9633;50.980;13.850;2022-12-16T07:00:32;-2.90;99.90
19000;DHT22;9633;50.980;13.850;2022-12-16T07:02:23;-2.90;99.90
19000;DHT22;9633;50.980;13.850;2022-12-16T07:04:14;-2.80;99.90
19000;DHT22;9633;50.980;13.850;2022-12-16T07:06:06;-2.80;99.90
19000;DHT22;9633;50.980;13.850;2022-12-16T07:07:56;-2.80;99.90
19000;DHT22;9633;50.980;13.850;2022-12-16T07:09:47;-2.80;99.90
19000;DHT22;9633;50.980;13.850;2022-12-16T07:11:37;-2.70;99.90
19000;DHT22;9633;50.980;13.850;2022-12-16T07:13:28;-2.70;99.90
19000;DHT22;9633;50.980;13.850;2022-12-16T07:15:18;-2.80;99.90
19000;DHT22;9633;50.980;13.850;2022-12-16T07:17:09;-2.80;99.90
19000;DHT22;9633;50.980;13.850;2022-12-16T07:18:59;-2.80;99.90
19000;DHT22;9633;50.980;13.850;2022-12-16T07:20:50;-2.80;99.90
19000;DHT22;9633;50.980;13.850;2022-12-16T07:22:43;-2.80;99.90
19000;DHT22;9633;50.980;13.850;2022-12-16T07:24:46;-2.90;99.90
19000;DHT22;9633;50.980;13.850;2022-12-16T07:26:37;-2.90;99.90
19000;DHT22;9633;50.980;13.850;2022-12-16T07:28:27;-2.90;99.90
19000;DHT22;9633;50.980;13.850;2022-12-16T07:30:18;-3.00;99.90
19000;DHT22;9633;50.980;13.850;2022-12-16T07:32:09;-2.90;99.90
19000;DHT22;9633;50.980;13.850;2022-12-16T07:33:59;-2.90;99.90
19000;DHT22;9633;50.980;13.850;2022-12-16T07:35:50;-2.90;99.90
19000;DHT22;9633;50.980;13.850;2022-12-16T07:37:40;-2.90;99.90
19000;DHT22;9633;50.980;13.850;2022-12-16T07:39:32;-2.80;99.90
19000;DHT22;9633;50.980;13.850;2022-12-16T07:41:26;-2.80;99.90
19000;DHT22;9633;50.980;13.850;2022-12-16T07:43:16;-2.80;99.90
19000;DHT22;9633;50.980;13.850;2022-12-16T07:45:08;-2.80;99.90
19000;DHT22;9633;50.980;13.850;2022-12-16T07:46:59;-2.80;99.90
19000;DHT22;9633;50.980;13.850;2022-12-16T07:48:49;-2.80;99.90
19000;DHT22;9633;50.980;13.850;2022-12-16T07:50:40;-2.70;99.90
19000;DHT22;9633;50.980;13.850;2022-12-16T07:52:33;-2.70;99.90
19000;DHT22;9633;50.980;13.850;2022-12-16T07:54:26;-2.70;99.90
19000;DHT22;9633;50.980;13.850;2022-12-16T07:56:18;-2.70;99.90
19000;DHT22;9633;50.980;13.850;2022-12-16T07:58:09;-2.60;99.90
19000;DHT22;9633;50.980;13.850;2022-12-16T08:00:00;-2.70;99.90
19000;DHT22;9633;50.980;13.850;2022-12-16T08:01:50;-2.70;99.90
19000;DHT22;9633;50.980;13.850;2022-12-16T08:03:41;-2.60;99.90
19000;DHT22;9633;50.980;13.850;2022-12-16T08:05:31;-2.60;99.90
19000;DHT22;9633;50.980;13.850;2022-12-16T08:07:22;-2.60;99.90
19000;DHT22;9633;50.980;13.850;2022-12-16T08:09:12;-2.50;99.90
19000;DHT22;9633;50.980;13.850;2022-12-16T08:11:03;-2.40;99.90
19000;DHT22;9633;50.980;13.850;2022-12-16T08:13:00;-2.50;99.90
19000;DHT22;9633;50.980;13.850;2022-12-16T08:14:56;-2.50;99.90
19000;DHT22;9633;50.980;13.850;2022-12-16T08:16:47;-2.40;99.90
19000;DHT22;9633;50.980;13.850;2022-12-16T08:18:38;-2.50;99.90
19000;DHT22;9633;50.980;13.850;2022-12-16T08:20:28;-2.50;99.90
19000;DHT22;9633;50.980;13.850;2022-12-16T08:22:19;-2.40;99.90
19000;DHT22;9633;50.980;13.850;2022-12-16T08:24:10;-2.30;99.90
19000;DHT22;9633;50.980;13.850;2022-12-16T08:26:01;-2.30;99.90
19000;DHT22;9633;50.980;13.850;2022-12-16T08:27:53;-2.20;99.90
19000;DHT22;9633;50.980;13.850;2022-12-16T08:29:45;-2.20;99.90
19000;DHT22;9633;50.980;13.850;2022-12-16T08:31:36;-2.20;99.90
19000;DHT22;9633;50.980;13.850;2022-12-16T08:33:26;-2.20;99.90
19000;DHT22;9633;50.980;13.850;2022-12-16T08:35:17;-2.30;99.90
19000;DHT22;9633;50.980;13.850;2022-12-16T08:37:08;-2.20;99.90
19000;DHT22;9633;50.980;13.850;2022-12-16T08:38:58;-2.30;99.90
19000;DHT22;9633;50.980;13.850;2022-12-16T08:40:49;-2.20;99.90
19000;DHT22;9633;50.980;13.850;2022-12-16T08:42:39;-2.20;99.90
19000;DHT22;9633;50.980;13.850;2022-12-16T08:44:30;-2.10;99.90
19000;DHT22;9633;50.980;13.850;2022-12-16T08:46:22;-2.10;99.90
19000;DHT22;9633;50.980;13.850;2022-12-16T08:48:13;-2.20;99.90
19000;DHT22;9633;50.980;13.850;2022-12-16T08:50:05;-2.20;99.90
19000;DHT22;9633;50.980;13.850;2022-12-16T08:51:56;-2.20;99.90
19000;DHT22;9633;50.980;13.850;2022-12-16T08:53:46;-2.20;99.90
19000;DHT22;9633;50.980;13.850;2022-12-16T08:55:37;-2.20;99.90
19000;DHT22;9633;50.980;13.850;2022-12-16T08:57:27;-2.40;99.90
19000;DHT22;9633;50.980;13.850;2022-12-16T08:59:18;-2.30;99.90
19000;DHT22;9633;50.980;13.850;2022-12-16T09:01:08;-2.30;99.90
19000;DHT22;9633;50.980;13.850;2022-12-16T09:03:00;-2.30;99.90
19000;DHT22;9633;50.980;13.850;2022-12-16T09:04:51;-2.30;99.90
19000;DHT22;9633;50.980;13.850;2022-12-16T09:06:41;-2.10;99.90
19000;DHT22;9633;50.980;13.850;2022-12-16T09:08:32;-2.20;99.90
19000;DHT22;9633;50.980;13.850;2022-12-16T09:10:23;-2.20;99.90
19000;DHT22;9633;50.980;13.850;2022-12-16T09:12:14;-2.30;99.90
19000;DHT22;9633;50.980;13.850;2022-12-16T09:14:04;-2.20;99.90
19000;DHT22;9633;50.980;13.850;2022-12-16T09:15:55;-2.10;99.90
19000;DHT22;9633;50.980;13.850;2022-12-16T09:17:52;-2.10;99.90
19000;DHT22;9633;50.980;13.850;2022-12-16T09:19:44;-2.20;99.90
19000;DHT22;9633;50.980;13.850;2022-12-16T09:21:35;-2.10;99.90
19000;DHT22;9633;50.980;13.850;2022-12-16T09:23:25;-2.10;99.90
19000;DHT22;9633;50.980;13.850;2022-12-16T09:25:16;-2.10;99.90
19000;DHT22;9633;50.980;13.850;2022-12-16T09:27:06;-2.00;99.90
19000;DHT22;9633;50.980;13.850;2022-12-16T09:28:57;-2.00;99.90
19000;DHT22;9633;50.980;13.850;2022-12-16T09:30:48;-2.00;99.90
19000;DHT22;9633;50.980;13.850;2022-12-16T09:32:40;-2.10;99.90
19000;DHT22;9633;50.980;13.850;2022-12-16T09:34:31;-2.20;99.90
19000;DHT22;9633;50.980;13.850;2022-12-16T09:36:23;-2.20;99.90
19000;DHT22;9633;50.980;13.850;2022-12-16T09:38:14;-2.30;99.90
19000;DHT22;9633;50.980;13.850;2022-12-16T09:40:06;-2.30;99.90
19000;DHT22;9633;50.980;13.850;2022-12-16T09:42:05;-2.20;99.90
19000;DHT22;9633;50.980;13.850;2022-12-16T09:44:02;-2.20;99.90
19000;DHT22;9633;50.980;13.850;2022-12-16T09:46:03;-2.20;99.90
19000;DHT22;9633;50.980;13.850;2022-12-16T09:48:08;-2.10;99.90
19000;DHT22;9633;50.980;13.850;2022-12-16T09:50:00;-2.10;99.90
19000;DHT22;9633;50.980;13.850;2022-12-16T09:51:52;-2.10;99.90
19000;DHT22;9633;50.980;13.850;2022-12-16T09:53:55;-2.00;99.90
19000;DHT22;9633;50.980;13.850;2022-12-16T09:55:45;-1.90;99.90
19000;DHT22;9633;50.980;13.850;2022-12-16T09:57:37;-1.90;99.90
19000;DHT22;9633;50.980;13.850;2022-12-16T09:59:29;-1.70;99.90
19000;DHT22;9633;50.980;13.850;2022-12-16T10:01:24;-1.50;99.90
19000;DHT22;9633;50.980;13.850;2022-12-16T10:03:20;-1.50;99.90
19000;DHT22;9633;50.980;13.850;2022-12-16T10:05:14;-1.40;99.90
19000;DHT22;9633;50.980;13.850;2022-12-16T10:07:14;-1.60;99.90
19000;DHT22;9633;50.980;13.850;2022-12-16T10:09:11;-1.50;99.90
19000;DHT22;9633;50.980;13.850;2022-12-16T10:11:12;-1.70;99.90
19000;DHT22;9633;50.980;13.850;2022-12-16T10:13:13;-1.60;99.90
19000;DHT22;9633;50.980;13.850;2022-12-16T10:15:13;-1.70;99.90
19000;DHT22;9633;50.980;13.850;2022-12-16T10:17:11;-1.70;99.90
19000;DHT22;9633;50.980;13.850;2022-12-16T10:19:13;-1.40;99.90
19000;DHT22;9633;50.980;13.850;2022-12-16T10:21:12;-1.30;99.90
19000;DHT22;9633;50.980;13.850;2022-12-16T10:23:12;-1.20;99.90
19000;DHT22;9633;50.980;13.850;2022-12-16T10:25:09;-1.20;99.90
19000;DHT22;9633;50.980;13.850;2022-12-16T10:27:06;-1.10;99.90
19000;DHT22;9633;50.980;13.850;2022-12-16T10:29:06;-1.10;99.90
19000;DHT22;9633;50.980;13.850;2022-12-16T10:31:10;-1.20;99.90
19000;DHT22;9633;50.980;13.850;2022-12-16T10:33:08;-1.40;99.90
19000;DHT22;9633;50.980;13.850;2022-12-16T10:35:00;-1.60;99.90
19000;DHT22;9633;50.980;13.850;2022-12-16T10:36:52;-1.60;99.90
19000;DHT22;9633;50.980;13.850;2022-12-16T10:38:53;-1.60;99.90
19000;DHT22;9633;50.980;13.850;2022-12-16T10:40:45;-1.50;99.90
19000;DHT22;9633;50.980;13.850;2022-12-16T10:42:43;-1.40;99.90
19000;DHT22;9633;50.980;13.850;2022-12-16T10:44:39;-1.50;99.90
19000;DHT22;9633;50.980;13.850;2022-12-16T10:46:34;-1.60;99.90
19000;DHT22;9633;50.980;13.850;2022-12-16T10:48:28;-1.50;99.90
19000;DHT22;9633;50.980;13.850;2022-12-16T10:50:27;-1.50;99.90
19000;DHT22;9633;50.980;13.850;2022-12-16T10:52:18;-1.60;99.90
19000;DHT22;9633;50.980;13.850;2022-12-16T10:54:22;-1.50;99.90
19000;DHT22;9633;50.980;13.850;2022-12-16T10:56:31;-1.20;99.90
19000;DHT22;9633;50.980;13.850;2022-12-16T10:58:36;-1.00;99.90
19000;DHT22;9633;50.980;13.850;2022-12-16T11:00:40;-1.10;99.90
19000;DHT22;9633;50.980;13.850;2022-12-16T11:02:31;-1.10;99.90
19000;DHT22;9633;50.980;13.850;2022-12-16T11:04:32;-1.10;99.90
19000;DHT22;9633;50.980;13.850;2022-12-16T11:06:34;-1.00;99.90
19000;DHT22;9633;50.980;13.850;2022-12-16T11:08:27;-0.90;99.90
19000;DHT22;9633;50.980;13.850;2022-12-16T11:10:31;-0.70;99.90
19000;DHT22;9633;50.980;13.850;2022-12-16T11:12:26;-0.80;99.90
19000;DHT22;9633;50.980;13.850;2022-12-16T11:14:21;-0.90;99.90